Marshall, Minnesota
Current Conditions -  °F | °C
As of 7:15 AM on Tuesday 21 Oct 2014 (Local Time) from KMML Reporting Station
Clear Clear  
Wind Chill: 32°   Ceiling: Unl
Heat Index: 37°   Visibility: 10mi
Dew Point: 30°   Wind: 7mph
Humidity: 75%   Direction: 150°SSE
Pressure: 30.1"   Gusts: NA
Location:  44.45°N, 95.79°W
Report Text: KMML 211215Z AUTO 15006KT 10SM CLR 03/M01 A3010 RMK AO1
Loading
Personal Weather Stations






























Interactive Weather Map
Tropical Storm Tracking
New forecast layout! Learn more

10-Day Weather Forecast

Advertisements
Track Severe Weather on mobile